Time;durP1;ratioP1;P1;durP2;ratioP2;P2;SDS_P1;SDS_P2;PMS_P1;PMS_P2;Temp;Humidity;BMP_temperature;BMP_pressure;BME280_temperature;BME280_humidity;BME280_pressure;Samples;Min_cycle;Max_cycle;Signal;HPM_P1;HPM_P2
2022/04/28 00:01:01;;;;;;;8.10;6.00;;;14.50;48.20;;;;;;5023217;28;20895;-88
2022/04/28 00:03:29;;;;;;;6.17;5.57;;;14.40;48.20;;;;;;5015326;28;20930;-87
2022/04/28 00:05:57;;;;;;;6.50;5.57;;;14.20;49.00;;;;;;5046576;28;20449;-87
2022/04/28 00:08:24;;;;;;;6.60;5.40;;;14.10;48.90;;;;;;5034704;28;20480;-88
2022/04/28 00:10:51;;;;;;;7.43;5.30;;;14.10;49.20;;;;;;5034156;28;20453;-87
2022/04/28 00:13:18;;;;;;;5.60;5.10;;;14.10;48.80;;;;;;5011509;28;20511;-88
2022/04/28 00:15:45;;;;;;;9.23;5.50;;;14.10;48.60;;;;;;5010870;28;20437;-88
2022/04/28 00:18:12;;;;;;;6.87;5.37;;;14.10;48.70;;;;;;5013146;28;20461;-87
2022/04/28 00:20:40;;;;;;;6.00;5.40;;;14.10;48.80;;;;;;5046372;28;20453;-87
2022/04/28 00:23:08;;;;;;;5.97;5.20;;;14.10;48.60;;;;;;5048193;28;20548;-87
2022/04/28 00:25:35;;;;;;;5.90;5.30;;;14.00;48.70;;;;;;5030703;28;20456;-87
2022/04/28 00:28:02;;;;;;;5.50;4.97;;;13.90;48.80;;;;;;5048322;28;20445;-87
2022/04/28 00:30:29;;;;;;;5.93;5.30;;;14.00;49.10;;;;;;5029899;28;20944;-87
2022/04/28 00:32:56;;;;;;;5.70;5.00;;;13.90;49.00;;;;;;5038256;28;20467;-87
2022/04/28 00:35:23;;;;;;;7.40;5.33;;;13.90;49.10;;;;;;5047361;28;20519;-87
2022/04/28 00:37:52;;;;;;;7.30;5.57;;;13.90;49.10;;;;;;5030206;28;20442;-88
2022/04/28 00:40:19;;;;;;;6.93;5.90;;;13.90;49.10;;;;;;5048532;28;20538;-87
2022/04/28 00:42:46;;;;;;;6.43;5.70;;;13.90;48.90;;;;;;5015712;28;20448;-87
2022/04/28 00:45:13;;;;;;;7.43;5.73;;;13.90;48.70;;;;;;5029712;28;20663;-87
2022/04/28 00:50:40;;;;;;;6.67;5.37;;;13.90;48.70;;;;;;5006372;28;20464;-87
2022/04/28 00:53:12;;;;;;;6.90;5.67;;;13.80;48.70;;;;;;5029299;28;20463;-88
2022/04/28 00:55:41;;;;;;;5.93;5.33;;;13.50;49.50;;;;;;5048728;28;20543;-87
2022/04/28 00:58:10;;;;;;;6.80;5.77;;;13.50;49.50;;;;;;5013760;28;20452;-87
2022/04/28 01:00:38;;;;;;;7.23;5.97;;;13.60;49.30;;;;;;5048830;28;20449;-87
2022/04/28 01:03:05;;;;;;;11.90;5.70;;;13.60;49.10;;;;;;5028812;28;20475;-87
2022/04/28 01:05:33;;;;;;;7.03;5.47;;;13.60;49.10;;;;;;5014403;28;20440;-87
2022/04/28 01:08:00;;;;;;;6.13;4.83;;;13.60;49.00;;;;;;5032292;28;20463;-87
2022/04/28 01:10:28;;;;;;;9.30;5.40;;;13.50;48.70;;;;;;5029978;28;20449;-88
2022/04/28 01:12:56;;;;;;;8.07;5.97;;;13.50;48.80;;;;;;5027923;28;20465;-87
2022/04/28 01:15:23;;;;;;;7.60;5.83;;;13.40;48.90;;;;;;5045369;28;20935;-87
2022/04/28 01:17:50;;;;;;;7.20;5.33;;;13.40;48.90;;;;;;5045944;28;20469;-88
2022/04/28 01:20:18;;;;;;;6.70;5.53;;;13.40;48.90;;;;;;5013185;28;20439;-88
2022/04/28 01:22:47;;;;;;;6.70;5.00;;;13.20;49.90;;;;;;5004696;28;20442;-86
2022/04/28 01:25:15;;;;;;;6.20;5.60;;;13.20;49.20;;;;;;5030328;28;20563;-87
2022/04/28 01:27:42;;;;;;;6.10;5.50;;;13.20;49.20;;;;;;4991190;28;20840;-89
2022/04/28 01:30:14;;;;;;;7.93;5.50;;;13.20;49.00;;;;;;5003271;28;21191;-87
2022/04/28 01:32:47;;;;;;;6.00;5.40;;;13.10;49.40;;;;;;5003217;28;20442;-87
2022/04/28 01:35:15;;;;;;;8.47;5.40;;;13.10;49.50;;;;;;5011630;28;20438;-87
2022/04/28 01:37:42;;;;;;;9.53;5.70;;;13.10;49.30;;;;;;4995029;28;20453;-89
2022/04/28 01:40:16;;;;;;;9.77;4.77;;;13.10;49.00;;;;;;5014871;28;20540;-88
2022/04/28 01:42:46;;;;;;;14.97;5.60;;;13.10;48.90;;;;;;5011153;28;20962;-88
2022/04/28 01:45:13;;;;;;;6.43;5.20;;;13.00;49.10;;;;;;4993019;28;21173;-88
2022/04/28 01:48:10;;;;;;;11.03;5.27;;;12.90;49.70;;;;;;5014203;28;20454;-88
2022/04/28 01:56:26;;;;;;;6.90;5.73;;;12.90;49.70;;;;;;5005635;28;20492;-87
2022/04/28 01:59:05;;;;;;;6.33;5.27;;;12.90;49.50;;;;;;4997402;28;20453;-87
2022/04/28 02:01:43;;;;;;;6.27;5.50;;;12.90;49.40;;;;;;5029006;28;20541;-87
2022/04/28 02:04:10;;;;;;;5.63;5.03;;;12.80;49.40;;;;;;5016606;28;20477;-87
2022/04/28 02:06:37;;;;;;;13.90;5.67;;;12.70;49.70;;;;;;5015123;28;20492;-87
2022/04/28 02:09:05;;;;;;;6.93;6.23;;;12.70;50.10;;;;;;5019952;28;20453;-88
2022/04/28 02:11:33;;;;;;;9.23;6.00;;;12.70;49.70;;;;;;5013628;28;20453;-89
2022/04/28 02:14:18;;;;;;;6.07;5.47;;;12.70;49.30;;;;;;5010300;28;20472;-88
2022/04/28 02:17:05;;;;;;;6.00;5.30;;;12.70;49.20;;;;;;4996859;28;20470;-88
2022/04/28 02:19:35;;;;;;;7.10;5.17;;;12.70;49.10;;;;;;5012591;28;20881;-89
2022/04/28 02:22:04;;;;;;;5.87;5.23;;;12.70;48.90;;;;;;4992471;28;20453;-88
2022/04/28 02:24:35;;;;;;;6.03;5.43;;;12.60;49.10;;;;;;4999040;28;20481;-88
2022/04/28 02:27:04;;;;;;;5.93;5.33;;;12.60;49.20;;;;;;5008426;28;21615;-87
2022/04/28 02:29:31;;;;;;;5.27;4.77;;;12.60;49.50;;;;;;5030216;28;20461;-87
2022/04/28 02:31:59;;;;;;;6.90;5.33;;;12.60;49.30;;;;;;5017601;28;20458;-88
2022/04/28 02:34:26;;;;;;;6.00;5.40;;;12.60;49.00;;;;;;5016256;28;21474;-87
2022/04/28 02:36:53;;;;;;;6.13;5.40;;;12.50;48.80;;;;;;5008726;28;20446;-89
2022/04/28 02:39:21;;;;;;;7.17;5.40;;;12.50;49.00;;;;;;5003537;28;20843;-90
2022/04/28 02:41:51;;;;;;;6.73;5.20;;;12.30;49.20;;;;;;4988614;28;20468;-88
2022/04/28 02:44:20;;;;;;;8.10;5.70;;;12.10;49.70;;;;;;5002841;28;20817;-88
2022/04/28 02:46:47;;;;;;;14.67;6.80;;;12.10;49.90;;;;;;5007027;28;20533;-87
2022/04/28 02:49:17;;;;;;;8.67;5.97;;;12.20;49.90;;;;;;5016635;28;20791;-89
2022/04/28 02:51:44;;;;;;;10.53;6.37;;;12.10;50.00;;;;;;5004102;28;20430;-86
2022/04/28 02:54:12;;;;;;;7.83;6.17;;;12.10;50.20;;;;;;4995987;28;20566;-88
2022/04/28 02:56:46;;;;;;;9.77;6.10;;;12.10;50.10;;;;;;5006340;28;20454;-86
2022/04/28 02:59:14;;;;;;;10.77;6.73;;;12.10;50.20;;;;;;5001118;28;20538;-88
2022/04/28 03:01:42;;;;;;;8.33;6.23;;;12.00;50.70;;;;;;5012614;28;20457;-87
2022/04/28 03:04:11;;;;;;;6.70;6.10;;;12.00;50.40;;;;;;5012373;28;20603;-88
2022/04/28 03:12:09;;;;;;;9.37;7.90;;;12.00;50.30;;;;;;5022076;28;20438;-88
2022/04/28 03:14:37;;;;;;;10.70;8.47;;;12.00;50.10;;;;;;4988059;28;20831;-87
2022/04/28 03:17:06;;;;;;;9.37;6.37;;;12.00;49.90;;;;;;5011345;28;21977;-87
2022/04/28 03:19:33;;;;;;;6.00;5.40;;;12.00;50.00;;;;;;5010322;28;20469;-87
2022/04/28 03:22:00;;;;;;;8.43;6.63;;;11.50;50.70;;;;;;5021193;28;20504;-87
2022/04/28 03:24:27;;;;;;;9.10;7.00;;;11.00;52.30;;;;;;5022569;28;20456;-87
2022/04/28 03:26:54;;;;;;;12.70;9.20;;;10.90;53.00;;;;;;5014421;28;21036;-87
2022/04/28 03:29:21;;;;;;;8.77;6.80;;;11.10;52.50;;;;;;5005003;28;20453;-88
2022/04/28 03:31:48;;;;;;;9.00;6.63;;;11.30;51.70;;;;;;4988947;28;20454;-88
2022/04/28 03:34:49;;;;;;;12.67;9.10;;;11.30;51.60;;;;;;4999302;28;20489;-87
2022/04/28 03:37:16;;;;;;;11.57;7.00;;;11.20;51.80;;;;;;4998321;28;20866;-87
2022/04/28 03:39:46;;;;;;;9.60;6.50;;;11.30;52.00;;;;;;5002144;28;20455;-87
2022/04/28 03:42:17;;;;;;;6.77;5.60;;;11.20;51.50;;;;;;5017186;28;20969;-87
2022/04/28 03:44:44;;;;;;;8.97;6.43;;;11.20;51.80;;;;;;5014111;28;20570;-89
2022/04/28 03:47:11;;;;;;;8.93;7.17;;;11.30;51.60;;;;;;5015123;28;22980;-87
2022/04/28 03:49:38;;;;;;;10.50;7.33;;;11.40;51.00;;;;;;4999329;28;20446;-88
2022/04/28 03:52:08;;;;;;;8.40;7.00;;;11.40;50.80;;;;;;5004529;28;21014;-87
2022/04/28 03:54:36;;;;;;;7.87;6.60;;;11.50;50.60;;;;;;4987795;28;20530;-88
2022/04/28 03:57:03;;;;;;;8.90;6.80;;;11.60;50.20;;;;;;5028641;28;20563;-87
2022/04/28 03:59:32;;;;;;;7.30;6.50;;;11.60;49.90;;;;;;4997296;28;21023;-87
2022/04/28 04:02:18;;;;;;;8.47;6.43;;;11.60;49.70;;;;;;5016187;28;20474;-89
2022/04/28 04:04:46;;;;;;;6.13;5.43;;;11.70;49.60;;;;;;4977780;28;20485;-89
2022/04/28 04:07:15;;;;;;;7.73;6.53;;;11.60;49.60;;;;;;5022915;28;20549;-88
2022/04/28 04:09:55;;;;;;;10.83;6.87;;;11.50;50.10;;;;;;5030800;28;20449;-88
2022/04/28 04:12:28;;;;;;;11.97;8.20;;;11.40;50.80;;;;;;5025915;28;20446;-88
2022/04/28 04:15:18;;;;;;;9.67;7.07;;;11.40;51.60;;;;;;5016174;28;20442;-89
2022/04/28 04:18:04;;;;;;;14.57;6.70;;;11.40;52.00;;;;;;5005672;28;20979;-88
2022/04/28 04:21:01;;;;;;;21.33;7.93;;;11.50;52.30;;;;;;5001366;28;20454;-88
2022/04/28 04:23:29;;;;;;;10.03;7.50;;;11.50;52.70;;;;;;5011798;28;20994;-88
2022/04/28 04:25:56;;;;;;;10.63;7.90;;;11.50;52.90;;;;;;5005723;28;20465;-88
2022/04/28 04:28:24;;;;;;;83.33;11.57;;;11.50;52.90;;;;;;4999194;28;20479;-88
2022/04/28 04:34:05;;;;;;;14.60;8.70;;;11.50;53.20;;;;;;4999613;28;21410;-88
2022/04/28 04:36:32;;;;;;;12.60;8.60;;;11.50;53.90;;;;;;5013169;28;20537;-89
2022/04/28 04:39:02;;;;;;;13.13;9.30;;;11.60;54.10;;;;;;4986513;28;20441;-89
2022/04/28 04:41:34;;;;;;;50.23;12.53;;;11.70;54.10;;;;;;5012750;28;20442;-88
2022/04/28 04:44:02;;;;;;;34.27;11.27;;;11.20;54.70;;;;;;5000423;28;20493;-88
2022/04/28 04:46:29;;;;;;;26.00;11.53;;;10.80;55.60;;;;;;5012033;28;20472;-90
2022/04/28 04:49:17;;;;;;;112.20;13.57;;;10.70;56.10;;;;;;5016508;28;20539;-88
2022/04/28 04:51:44;;;;;;;38.80;12.20;;;10.40;56.60;;;;;;5011369;28;20474;-88
2022/04/28 04:54:21;;;;;;;16.20;10.70;;;10.50;57.80;;;;;;5027760;28;21166;-90
2022/04/28 04:56:50;;;;;;;25.10;13.30;;;10.70;57.00;;;;;;4997162;28;20585;-89
2022/04/28 04:59:18;;;;;;;37.03;25.23;;;10.80;56.70;;;;;;4997367;28;20974;-90
2022/04/28 05:01:45;;;;;;;25.30;19.93;;;10.80;56.40;;;;;;5010598;28;20811;-87
2022/04/28 05:04:30;;;;;;;30.23;10.90;;;10.90;56.60;;;;;;5006109;28;20930;-88
2022/04/28 05:07:16;;;;;;;36.43;13.00;;;10.90;56.30;;;;;;4995150;28;20439;-88
2022/04/28 05:09:45;;;;;;;112.93;12.17;;;10.70;56.60;;;;;;5012145;28;20897;-89
2022/04/28 05:12:12;;;;;;;58.03;11.93;;;10.80;56.40;;;;;;5026680;28;20693;-90
2022/04/28 05:14:52;;;;;;;42.43;11.40;;;10.60;56.80;;;;;;5013331;28;20974;-88
2022/04/28 05:17:20;;;;;;;83.97;12.50;;;10.40;57.70;;;;;;4982115;28;20457;-88
2022/04/28 05:20:04;;;;;;;33.90;10.00;;;10.00;58.70;;;;;;5023855;28;20468;-88
2022/04/28 05:23:03;;;;;;;119.13;13.50;;;9.70;61.50;;;;;;5020114;28;20477;-89
2022/04/28 05:25:41;;;;;;;15.37;11.50;;;9.50;62.00;;;;;;5031343;28;20624;-87
2022/04/28 05:28:28;;;;;;;32.87;11.40;;;9.80;62.00;;;;;;4984108;28;20456;-87
2022/04/28 05:31:14;;;;;;;30.30;10.77;;;10.10;60.20;;;;;;4998299;28;20561;-88
2022/04/28 05:33:56;;;;;;;20.23;11.93;;;10.40;59.50;;;;;;5014491;28;20478;-88
2022/04/28 05:36:37;;;;;;;35.07;11.47;;;10.70;58.90;;;;;;5010070;28;20826;-88
2022/04/28 05:39:05;;;;;;;16.40;11.43;;;10.80;58.40;;;;;;5010281;28;20440;-89
2022/04/28 05:41:35;;;;;;;23.80;11.27;;;10.80;58.20;;;;;;4997933;28;21150;-89
2022/04/28 05:46:47;;;;;;;14.50;9.00;;;11.10;57.60;;;;;;4986514;28;20827;-88
2022/04/28 05:49:14;;;;;;;16.47;9.80;;;10.90;58.00;;;;;;5031699;28;20803;-88
2022/04/28 05:51:43;;;;;;;15.63;10.20;;;11.00;58.20;;;;;;4999291;28;20521;-89
2022/04/28 05:54:12;;;;;;;15.83;8.53;;;11.10;58.10;;;;;;5008646;28;20562;-88
2022/04/28 05:56:41;;;;;;;18.73;10.03;;;11.10;57.50;;;;;;5012256;28;20547;-89
2022/04/28 05:59:12;;;;;;;44.20;9.80;;;10.90;58.30;;;;;;5009394;28;20453;-89
2022/04/28 06:01:45;;;;;;;16.17;9.17;;;10.70;58.70;;;;;;5005968;28;20957;-87
2022/04/28 06:04:16;;;;;;;16.77;10.30;;;10.80;59.10;;;;;;5000360;28;20484;-88
2022/04/28 06:06:45;;;;;;;19.20;10.07;;;11.20;58.80;;;;;;4996266;28;20845;-87
2022/04/28 06:09:22;;;;;;;16.67;10.40;;;11.30;57.40;;;;;;4996623;28;20472;-88
2022/04/28 06:11:51;;;;;;;13.77;9.80;;;11.50;57.30;;;;;;4983338;28;20822;-89
2022/04/28 06:14:18;;;;;;;19.93;9.93;;;11.50;57.10;;;;;;4999555;28;20466;-88
2022/04/28 06:17:15;;;;;;;15.10;10.20;;;11.80;57.00;;;;;;5014768;28;20469;-89
2022/04/28 06:19:43;;;;;;;18.90;9.67;;;12.00;56.50;;;;;;4999695;28;20457;-89
2022/04/28 06:22:30;;;;;;;15.00;10.20;;;12.10;56.10;;;;;;5014991;28;20461;-89
2022/04/28 06:24:58;;;;;;;19.30;10.37;;;12.00;55.90;;;;;;4995959;28;20482;-89
2022/04/28 06:27:29;;;;;;;20.17;13.10;;;11.80;56.50;;;;;;5017285;28;20976;-89
2022/04/28 06:29:57;;;;;;;14.77;9.60;;;11.60;56.90;;;;;;5016781;28;20508;-90
2022/04/28 06:32:24;;;;;;;20.50;12.90;;;11.60;57.50;;;;;;5009105;28;20453;-90
2022/04/28 06:35:20;;;;;;;15.57;9.40;;;11.60;57.80;;;;;;4985947;28;20996;-90
2022/04/28 06:37:49;;;;;;;12.93;10.53;;;11.60;57.30;;;;;;5033308;28;20478;-88
2022/04/28 06:40:17;;;;;;;13.80;10.57;;;11.50;57.60;;;;;;5014624;28;20974;-89
2022/04/28 06:42:50;;;;;;;13.57;10.07;;;11.50;57.30;;;;;;5000330;28;21107;-89
2022/04/28 06:45:25;;;;;;;19.23;11.33;;;11.40;57.40;;;;;;5033906;28;20473;-90
2022/04/28 06:48:11;;;;;;;18.10;11.70;;;11.30;57.70;;;;;;5002730;28;20446;-91
2022/04/28 06:50:38;;;;;;;19.23;11.70;;;11.40;56.90;;;;;;5032390;28;20820;-89
2022/04/28 06:53:24;;;;;;;20.47;12.37;;;11.60;56.60;;;;;;5004073;28;20453;-89
2022/04/28 06:55:57;;;;;;;19.60;12.50;;;11.80;57.20;;;;;;4983337;28;21124;-90
2022/04/28 06:58:27;;;;;;;13.00;10.33;;;12.00;57.00;;;;;;5016930;28;20458;-89
2022/04/28 07:00:54;;;;;;;15.23;11.40;;;12.30;56.30;;;;;;5011122;28;20542;-89
2022/04/28 07:03:22;;;;;;;18.67;11.67;;;12.40;55.60;;;;;;4996397;28;20474;-87
2022/04/28 07:05:53;;;;;;;20.83;11.77;;;12.40;56.00;;;;;;4986096;28;20506;-88
2022/04/28 07:08:20;;;;;;;16.77;9.77;;;12.30;56.10;;;;;;5005298;28;20450;-89
2022/04/28 07:10:49;;;;;;;13.10;9.97;;;12.40;56.60;;;;;;5008428;28;20464;-89
2022/04/28 07:13:17;;;;;;;12.80;8.87;;;12.40;56.50;;;;;;5007322;28;20565;-88
2022/04/28 07:16:20;;;;;;;15.33;9.70;;;12.60;56.50;;;;;;5014665;28;20446;-89
2022/04/28 07:19:07;;;;;;;15.97;7.93;;;12.60;56.70;;;;;;5010356;28;20453;-89
2022/04/28 07:21:37;;;;;;;12.93;9.13;;;12.70;56.40;;;;;;5033452;28;20933;-90
2022/04/28 07:24:04;;;;;;;8.60;7.63;;;12.90;56.30;;;;;;4989180;28;20467;-89
2022/04/28 07:26:31;;;;;;;8.50;7.60;;;13.00;55.40;;;;;;5001445;28;20675;-89
2022/04/28 07:28:58;;;;;;;7.40;6.53;;;13.00;55.60;;;;;;5034003;28;20466;-90
2022/04/28 07:31:50;;;;;;;6.40;5.70;;;13.10;55.00;;;;;;5018923;28;20453;-90
2022/04/28 07:34:16;;;;;;;11.17;7.70;;;13.30;54.90;;;;;;5019331;28;21052;-90
2022/04/28 07:37:10;;;;;;;8.87;7.97;;;13.60;55.10;;;;;;5011155;28;20456;-89
2022/04/28 07:39:56;;;;;;;8.83;7.70;;;13.90;54.70;;;;;;5016324;28;21262;-90
2022/04/28 07:42:44;;;;;;;12.80;7.27;;;14.20;54.00;;;;;;5000482;28;20454;-90
2022/04/28 07:45:11;;;;;;;9.23;7.30;;;14.10;53.70;;;;;;5034431;28;21955;-92
2022/04/28 07:47:43;;;;;;;10.10;7.50;;;14.20;54.40;;;;;;4991508;28;20453;-90
2022/04/28 07:50:18;;;;;;;14.80;8.20;;;14.30;54.00;;;;;;5037907;28;20465;-90
2022/04/28 07:52:45;;;;;;;11.13;8.10;;;14.50;54.50;;;;;;5013626;28;20513;-89
2022/04/28 07:55:14;;;;;;;13.30;8.67;;;14.90;54.00;;;;;;5025816;28;20564;-91
2022/04/28 07:57:42;;;;;;;8.20;7.33;;;15.20;53.60;;;;;;5009750;28;20445;-91
2022/04/28 08:00:11;;;;;;;10.20;7.10;;;15.40;52.60;;;;;;4991067;28;21215;-90
2022/04/28 08:02:50;;;;;;;10.90;7.93;;;15.50;52.90;;;;;;5001614;28;20826;-90
2022/04/28 08:05:21;;;;;;;13.93;7.37;;;15.60;52.40;;;;;;4999910;28;20443;-91
2022/04/28 08:07:48;;;;;;;11.13;7.10;;;15.70;52.60;;;;;;5025204;28;20465;-89
2022/04/28 08:10:16;;;;;;;8.07;7.27;;;15.80;52.60;;;;;;5016001;28;20456;-89
2022/04/28 08:12:43;;;;;;;11.40;8.20;;;16.00;52.40;;;;;;5002887;28;20451;-90
2022/04/28 08:15:30;;;;;;;9.87;7.23;;;16.20;52.00;;;;;;5016778;28;20511;-90
2022/04/28 08:17:59;;;;;;;7.70;6.10;;;16.30;51.30;;;;;;4989875;28;20937;-90
2022/04/28 08:20:26;;;;;;;8.27;6.60;;;16.20;51.60;;;;;;5014976;28;20841;-89
2022/04/28 08:22:55;;;;;;;9.00;6.80;;;16.40;51.40;;;;;;4999996;28;20450;-90
2022/04/28 08:25:23;;;;;;;9.80;6.97;;;16.50;51.30;;;;;;4992106;28;20563;-89
2022/04/28 08:27:50;;;;;;;8.30;6.10;;;16.60;50.90;;;;;;5025516;28;20520;-90
2022/04/28 08:30:17;;;;;;;7.20;6.50;;;16.60;51.10;;;;;;5021081;28;20470;-90
2022/04/28 08:32:44;;;;;;;7.20;5.90;;;16.70;51.50;;;;;;5019490;28;20673;-91
2022/04/28 08:35:13;;;;;;;14.80;7.20;;;16.80;51.50;;;;;;4993853;28;20898;-90
2022/04/28 08:37:40;;;;;;;12.07;7.13;;;16.80;51.10;;;;;;5000028;28;20462;-91
2022/04/28 08:40:08;;;;;;;14.27;8.10;;;16.80;51.20;;;;;;5005874;28;20457;-90
2022/04/28 08:42:37;;;;;;;8.37;6.80;;;17.00;51.20;;;;;;5014319;28;20457;-91
2022/04/28 08:45:29;;;;;;;7.80;6.33;;;17.30;51.00;;;;;;5000170;28;20541;-90
2022/04/28 08:48:26;;;;;;;9.80;7.10;;;17.70;50.10;;;;;;4996114;28;20442;-90
2022/04/28 08:51:09;;;;;;;20.83;7.30;;;17.80;49.50;;;;;;5023661;28;20489;-90
2022/04/28 08:53:36;;;;;;;8.60;6.07;;;18.10;48.90;;;;;;5019783;28;20474;-90
2022/04/28 08:56:04;;;;;;;6.70;5.80;;;18.30;48.00;;;;;;5003680;28;20529;-89
2022/04/28 08:58:31;;;;;;;8.77;6.83;;;18.50;46.90;;;;;;5014574;28;20510;-89
2022/04/28 09:01:03;;;;;;;7.67;6.87;;;18.60;47.20;;;;;;4996170;28;20441;-90
2022/04/28 09:03:51;;;;;;;10.67;6.53;;;18.80;47.60;;;;;;5003216;28;20481;-91
2022/04/28 09:06:43;;;;;;;8.17;6.43;;;19.00;46.10;;;;;;4995889;28;20458;-90
2022/04/28 09:09:36;;;;;;;7.77;5.83;;;19.10;45.60;;;;;;5014876;28;21161;-89
2022/04/28 09:12:22;;;;;;;7.30;5.53;;;19.10;45.30;;;;;;5006131;28;20469;-90
2022/04/28 09:15:12;;;;;;;9.03;6.70;;;19.40;45.50;;;;;;5003916;28;20584;-90
2022/04/28 09:17:42;;;;;;;7.00;5.60;;;19.50;45.00;;;;;;5016801;28;20462;-91
2022/04/28 09:20:15;;;;;;;7.90;6.43;;;19.70;45.50;;;;;;5012507;28;20457;-89
2022/04/28 09:22:45;;;;;;;9.17;5.80;;;20.00;43.80;;;;;;5021917;28;20449;-88
2022/04/28 09:25:20;;;;;;;6.87;5.80;;;20.10;42.90;;;;;;4995680;28;20477;-89
2022/04/28 09:27:49;;;;;;;7.13;5.67;;;20.20;42.30;;;;;;5013117;28;20824;-89
2022/04/28 09:30:16;;;;;;;6.53;5.20;;;20.40;42.50;;;;;;4996683;28;20516;-89
2022/04/28 09:32:58;;;;;;;18.30;9.43;;;20.60;40.30;;;;;;5014818;28;20604;-91
2022/04/28 09:35:48;;;;;;;6.10;5.50;;;20.70;40.50;;;;;;5017485;28;20465;-89
2022/04/28 09:38:28;;;;;;;7.13;4.60;;;20.50;39.10;;;;;;5014219;28;20446;-89
2022/04/28 09:43:40;;;;;;;5.13;4.30;;;21.20;38.70;;;;;;5003909;28;20512;-89
2022/04/28 09:46:09;;;;;;;7.13;4.93;;;21.40;38.00;;;;;;5019004;28;20469;-89
2022/04/28 09:48:37;;;;;;;5.50;4.90;;;21.30;38.00;;;;;;5022041;28;20454;-90
2022/04/28 09:51:09;;;;;;;10.40;5.10;;;21.40;33.50;;;;;;5012650;28;20462;-89
2022/04/28 09:54:08;;;;;;;4.87;4.40;;;21.30;33.80;;;;;;4978506;28;20482;-90
2022/04/28 09:56:49;;;;;;;6.30;4.90;;;21.70;34.10;;;;;;5001680;28;20455;-88
2022/04/28 09:59:21;;;;;;;4.93;4.40;;;22.00;35.60;;;;;;4993368;28;20516;-90
2022/04/28 10:01:49;;;;;;;5.80;4.70;;;22.10;33.10;;;;;;5007896;28;20782;-91
2022/04/28 10:04:16;;;;;;;9.27;5.17;;;22.00;32.90;;;;;;5011830;28;21197;-89
2022/04/28 10:07:10;;;;;;;9.70;5.07;;;22.00;33.30;;;;;;5023498;28;20475;-89
2022/04/28 10:09:41;;;;;;;6.20;5.20;;;22.30;34.60;;;;;;5011265;28;20745;-89
2022/04/28 10:12:15;;;;;;;7.27;5.53;;;22.50;31.50;;;;;;4991864;28;20449;-89
2022/04/28 10:15:13;;;;;;;7.90;4.40;;;22.50;32.80;;;;;;4992281;28;20592;-90
2022/04/28 10:17:46;;;;;;;4.47;4.07;;;23.10;34.60;;;;;;5015003;28;20459;-89
2022/04/28 10:20:19;;;;;;;5.10;4.67;;;23.40;31.90;;;;;;5007513;28;20465;-91
2022/04/28 10:22:53;;;;;;;4.63;4.13;;;22.90;31.50;;;;;;4982598;28;20542;-90
2022/04/28 10:34:13;;;;;;;4.37;3.97;;;23.30;30.00;;;;;;5007470;28;20473;-90
2022/04/28 10:36:54;;;;;;;5.03;3.80;;;23.30;29.50;;;;;;4996689;28;20451;-89
2022/04/28 10:39:39;;;;;;;5.47;4.07;;;23.70;30.00;;;;;;4994847;28;20473;-88
2022/04/28 10:42:15;;;;;;;3.43;3.13;;;23.90;30.20;;;;;;5013134;28;20453;-89
2022/04/28 10:44:54;;;;;;;4.77;4.27;;;24.00;29.20;;;;;;5027037;28;20466;-89
2022/04/28 10:47:34;;;;;;;9.57;3.50;;;24.20;29.00;;;;;;5030794;28;20972;-89
2022/04/28 10:50:00;;;;;;;4.03;3.63;;;24.30;27.80;;;;;;5019510;28;20442;-90
2022/04/28 10:52:28;;;;;;;4.17;3.70;;;23.60;28.90;;;;;;5031471;28;20656;-90
2022/04/28 10:55:00;;;;;;;4.53;3.60;;;24.00;28.20;;;;;;5028252;28;20909;-88
2022/04/28 10:57:33;;;;;;;4.53;3.87;;;24.50;26.80;;;;;;5030379;28;20500;-86
2022/04/28 11:00:02;;;;;;;3.70;3.37;;;24.70;27.40;;;;;;4996905;28;20460;-87
2022/04/28 11:02:43;;;;;;;4.20;2.97;;;25.10;27.20;;;;;;5015742;28;21011;-88
2022/04/28 11:05:29;;;;;;;4.40;3.70;;;25.40;25.10;;;;;;4997991;28;20515;-88
2022/04/28 11:07:59;;;;;;;5.93;4.50;;;25.50;23.70;;;;;;4995968;28;20540;-88
2022/04/28 11:10:27;;;;;;;5.67;3.70;;;25.70;24.60;;;;;;5004569;28;20450;-88
2022/04/28 11:12:56;;;;;;;4.50;3.63;;;25.90;24.10;;;;;;5001907;28;20513;-87
2022/04/28 11:15:27;;;;;;;4.63;3.63;;;25.70;25.50;;;;;;5030737;28;20467;-87
2022/04/28 11:17:54;;;;;;;4.37;3.40;;;25.80;24.30;;;;;;5014108;28;21178;-89
2022/04/28 11:20:21;;;;;;;3.87;3.50;;;26.00;24.90;;;;;;4998967;28;20450;-88
2022/04/28 11:23:00;;;;;;;3.83;3.53;;;26.10;23.30;;;;;;5003326;28;20533;-89
2022/04/28 11:25:27;;;;;;;4.63;3.13;;;25.40;23.90;;;;;;5034058;28;20450;-88
2022/04/28 11:27:57;;;;;;;3.80;3.40;;;24.70;26.00;;;;;;5009938;28;20688;-88
2022/04/28 11:30:26;;;;;;;4.20;3.80;;;24.40;26.40;;;;;;5011530;28;20462;-89
2022/04/28 11:32:57;;;;;;;7.20;4.40;;;24.50;26.60;;;;;;5011250;28;20536;-88
2022/04/28 11:35:30;;;;;;;7.83;4.70;;;24.80;27.10;;;;;;5016364;28;20457;-87
2022/04/28 11:37:57;;;;;;;6.00;5.10;;;25.20;26.70;;;;;;5012341;28;20949;-88
2022/04/28 11:40:24;;;;;;;9.87;4.77;;;25.60;25.50;;;;;;5029876;28;20449;-88
2022/04/28 11:42:58;;;;;;;5.43;3.50;;;25.90;26.60;;;;;;5011336;28;20446;-87
2022/04/28 11:45:26;;;;;;;3.60;3.30;;;26.00;25.90;;;;;;5028553;28;20454;-89
2022/04/28 11:47:55;;;;;;;5.20;4.07;;;25.70;26.40;;;;;;5010579;28;20561;-89
2022/04/28 11:50:24;;;;;;;4.53;4.13;;;24.90;25.60;;;;;;5012009;28;20433;-88
2022/04/28 11:53:03;;;;;;;4.20;3.80;;;24.50;25.90;;;;;;5010483;28;20454;-88
2022/04/28 11:55:33;;;;;;;6.03;4.97;;;24.80;24.90;;;;;;5014728;28;20497;-89
2022/04/28 11:58:03;;;;;;;6.07;4.37;;;25.30;26.20;;;;;;5026532;28;20445;-89
2022/04/28 12:00:37;;;;;;;4.40;3.93;;;25.30;24.60;;;;;;5002797;28;20465;-89
2022/04/28 12:03:04;;;;;;;7.57;5.00;;;25.00;26.70;;;;;;4998570;28;20477;-89
2022/04/28 12:05:32;;;;;;;6.27;5.53;;;24.60;26.90;;;;;;4996891;28;20458;-89
2022/04/28 12:07:59;;;;;;;7.13;4.40;;;25.00;26.70;;;;;;5010631;28;20470;-89
2022/04/28 12:16:00;;;;;;;4.97;4.10;;;25.70;24.50;;;;;;5001832;28;20524;-90
2022/04/28 12:21:21;;;;;;;5.40;4.87;;;25.30;25.50;;;;;;5006202;28;20434;-89
2022/04/28 12:23:50;;;;;;;5.70;3.83;;;25.20;23.20;;;;;;5004301;28;20476;-89
2022/04/28 12:26:20;;;;;;;4.70;3.80;;;25.60;25.70;;;;;;5012019;28;20453;-89
2022/04/28 12:28:49;;;;;;;3.53;3.23;;;26.00;24.50;;;;;;4992987;28;21233;-88
2022/04/28 12:31:25;;;;;;;3.80;3.47;;;26.10;25.10;;;;;;5013807;28;20446;-89
2022/04/28 12:33:53;;;;;;;6.13;4.60;;;26.30;25.30;;;;;;5010053;28;20482;-91
2022/04/28 12:36:21;;;;;;;3.57;3.27;;;26.10;24.90;;;;;;5001457;28;21080;-90
2022/04/28 12:38:50;;;;;;;4.30;4.00;;;25.90;25.40;;;;;;5014998;28;20445;-90
2022/04/28 12:41:19;;;;;;;4.43;4.03;;;25.80;25.70;;;;;;5019385;28;20454;-90
2022/04/28 12:43:49;;;;;;;4.40;3.50;;;25.30;24.80;;;;;;5018520;28;20470;-90
2022/04/28 12:46:20;;;;;;;5.13;4.20;;;25.40;25.90;;;;;;5019425;28;20452;-90
2022/04/28 12:48:54;;;;;;;3.97;3.63;;;25.60;25.70;;;;;;5030300;28;20498;-91
2022/04/28 12:51:23;;;;;;;4.23;3.53;;;25.80;26.10;;;;;;4995241;28;20485;-89
2022/04/28 12:53:51;;;;;;;6.40;4.60;;;25.90;25.50;;;;;;5011344;28;20474;-90
2022/04/28 12:56:26;;;;;;;4.00;3.10;;;26.10;25.20;;;;;;5012868;28;20461;-88
2022/04/28 12:58:57;;;;;;;3.93;3.60;;;26.40;25.10;;;;;;4994281;28;20472;-90
2022/04/28 13:01:25;;;;;;;5.63;4.63;;;25.90;25.10;;;;;;5008931;28;20481;-89
2022/04/28 13:03:55;;;;;;;3.87;3.47;;;26.10;24.90;;;;;;5001844;28;20482;-87
2022/04/28 13:06:24;;;;;;;5.40;3.67;;;26.00;25.80;;;;;;5033445;28;20832;-89
2022/04/28 13:08:52;;;;;;;5.70;4.03;;;26.10;25.20;;;;;;5014615;28;20531;-89
2022/04/28 13:11:21;;;;;;;5.13;4.23;;;26.00;25.00;;;;;;5026502;28;20817;-88
2022/04/28 13:13:52;;;;;;;3.73;3.33;;;26.00;25.10;;;;;;4998309;28;20474;-88
2022/04/28 13:16:20;;;;;;;3.80;3.37;;;25.80;23.90;;;;;;5027605;28;20461;-88
2022/04/28 13:18:48;;;;;;;4.83;4.03;;;25.60;25.20;;;;;;5000572;28;20449;-88
2022/04/28 13:21:15;;;;;;;4.07;3.43;;;25.50;26.00;;;;;;5009543;28;20460;-89
2022/04/28 13:23:43;;;;;;;4.00;3.27;;;25.50;25.70;;;;;;5001595;28;21225;-88
2022/04/28 13:26:12;;;;;;;3.40;3.10;;;25.60;25.50;;;;;;5025739;28;20459;-88
2022/04/28 13:28:39;;;;;;;3.93;3.53;;;25.60;27.30;;;;;;5026580;28;20485;-87
2022/04/28 13:31:06;;;;;;;3.33;3.03;;;26.00;26.30;;;;;;5025983;28;20907;-86
2022/04/28 13:33:35;;;;;;;4.60;3.50;;;26.10;24.90;;;;;;4986000;28;20505;-87
2022/04/28 13:36:03;;;;;;;3.90;2.83;;;26.20;24.10;;;;;;5014209;28;20457;-89
2022/04/28 13:38:30;;;;;;;3.90;3.60;;;26.00;24.40;;;;;;5002297;28;20454;-89
2022/04/28 13:40:58;;;;;;;3.33;2.77;;;25.90;24.20;;;;;;5008480;28;20507;-89
2022/04/28 13:43:25;;;;;;;3.60;3.30;;;26.10;23.90;;;;;;5011863;28;20485;-89
2022/04/28 13:45:52;;;;;;;3.90;3.60;;;25.80;23.60;;;;;;4996664;28;20453;-89
2022/04/28 13:48:19;;;;;;;3.17;2.87;;;25.80;23.20;;;;;;5015289;28;20470;-89